sensor_id;sensor_type;location;lat;lon;timestamp;P1;durP1;ratioP1;P2;durP2;ratioP2
74926;SDS011;63488;48.092;-1.640;2023-03-26T00:01:19;1.63;;;0.40;;
74926;SDS011;63488;48.092;-1.640;2023-03-26T00:03:45;1.88;;;0.40;;
74926;SDS011;63488;48.092;-1.640;2023-03-26T00:06:12;1.77;;;0.20;;
74926;SDS011;63488;48.092;-1.640;2023-03-26T00:08:38;0.98;;;0.20;;
74926;SDS011;63488;48.092;-1.640;2023-03-26T00:11:04;1.13;;;0.30;;
74926;SDS011;63488;48.092;-1.640;2023-03-26T00:13:30;0.68;;;0.20;;
74926;SDS011;63488;48.092;-1.640;2023-03-26T00:15:56;1.33;;;0.25;;
74926;SDS011;63488;48.092;-1.640;2023-03-26T00:18:21;0.28;;;0.10;;
74926;SDS011;63488;48.092;-1.640;2023-03-26T00:20:49;0.75;;;0.10;;
74926;SDS011;63488;48.092;-1.640;2023-03-26T00:23:15;1.13;;;0.25;;
74926;SDS011;63488;48.092;-1.640;2023-03-26T00:25:40;0.40;;;0.10;;
74926;SDS011;63488;48.092;-1.640;2023-03-26T00:28:07;0.63;;;0.10;;
74926;SDS011;63488;48.092;-1.640;2023-03-26T00:30:33;0.50;;;0.30;;
74926;SDS011;63488;48.092;-1.640;2023-03-26T00:32:59;0.98;;;0.32;;
74926;SDS011;63488;48.092;-1.640;2023-03-26T00:35:25;1.77;;;0.40;;
74926;SDS011;63488;48.092;-1.640;2023-03-26T00:37:50;0.75;;;0.20;;
74926;SDS011;63488;48.092;-1.640;2023-03-26T00:40:17;1.60;;;0.32;;
74926;SDS011;63488;48.092;-1.640;2023-03-26T00:42:43;2.08;;;0.30;;
74926;SDS011;63488;48.092;-1.640;2023-03-26T00:45:08;1.05;;;0.28;;
74926;SDS011;63488;48.092;-1.640;2023-03-26T00:47:34;1.88;;;0.40;;
74926;SDS011;63488;48.092;-1.640;2023-03-26T00:50:00;1.58;;;0.28;;
74926;SDS011;63488;48.092;-1.640;2023-03-26T00:52:25;3.47;;;0.40;;
74926;SDS011;63488;48.092;-1.640;2023-03-26T00:54:53;4.82;;;0.63;;
74926;SDS011;63488;48.092;-1.640;2023-03-26T00:57:18;3.33;;;0.88;;
74926;SDS011;63488;48.092;-1.640;2023-03-26T00:59:47;3.03;;;0.55;;
74926;SDS011;63488;48.092;-1.640;2023-03-26T01:02:14;3.08;;;0.80;;
74926;SDS011;63488;48.092;-1.640;2023-03-26T01:04:46;3.05;;;0.68;;
74926;SDS011;63488;48.092;-1.640;2023-03-26T01:07:13;4.00;;;0.82;;
74926;SDS011;63488;48.092;-1.640;2023-03-26T01:09:41;2.17;;;0.90;;
74926;SDS011;63488;48.092;-1.640;2023-03-26T01:12:12;3.05;;;0.93;;
74926;SDS011;63488;48.092;-1.640;2023-03-26T01:14:39;5.82;;;1.13;;
74926;SDS011;63488;48.092;-1.640;2023-03-26T01:17:05;5.15;;;0.70;;
74926;SDS011;63488;48.092;-1.640;2023-03-26T01:22:03;4.57;;;0.90;;
74926;SDS011;63488;48.092;-1.640;2023-03-26T01:24:29;5.75;;;1.02;;
74926;SDS011;63488;48.092;-1.640;2023-03-26T01:31:58;4.43;;;1.25;;
74926;SDS011;63488;48.092;-1.640;2023-03-26T01:34:32;5.43;;;1.27;;
74926;SDS011;63488;48.092;-1.640;2023-03-26T01:39:57;6.50;;;1.60;;
74926;SDS011;63488;48.092;-1.640;2023-03-26T01:47:52;7.68;;;1.30;;
74926;SDS011;63488;48.092;-1.640;2023-03-26T01:50:18;5.50;;;1.20;;
74926;SDS011;63488;48.092;-1.640;2023-03-26T01:52:43;7.40;;;1.40;;
74926;SDS011;63488;48.092;-1.640;2023-03-26T01:55:09;7.47;;;1.33;;
74926;SDS011;63488;48.092;-1.640;2023-03-26T02:00:24;8.32;;;1.73;;
74926;SDS011;63488;48.092;-1.640;2023-03-26T02:03:11;6.38;;;1.20;;
74926;SDS011;63488;48.092;-1.640;2023-03-26T02:08:20;5.05;;;1.13;;
74926;SDS011;63488;48.092;-1.640;2023-03-26T02:10:48;7.55;;;1.33;;
74926;SDS011;63488;48.092;-1.640;2023-03-26T02:13:14;7.38;;;1.20;;
74926;SDS011;63488;48.092;-1.640;2023-03-26T02:15:40;7.55;;;1.50;;
74926;SDS011;63488;48.092;-1.640;2023-03-26T02:18:05;7.18;;;1.85;;
74926;SDS011;63488;48.092;-1.640;2023-03-26T02:20:34;10.60;;;1.45;;
74926;SDS011;63488;48.092;-1.640;2023-03-26T02:23:00;6.18;;;1.83;;
74926;SDS011;63488;48.092;-1.640;2023-03-26T02:25:25;11.93;;;1.83;;
74926;SDS011;63488;48.092;-1.640;2023-03-26T02:27:51;9.30;;;1.80;;
74926;SDS011;63488;48.092;-1.640;2023-03-26T02:30:18;7.80;;;1.60;;
74926;SDS011;63488;48.092;-1.640;2023-03-26T02:32:43;6.10;;;1.40;;
74926;SDS011;63488;48.092;-1.640;2023-03-26T02:35:09;8.95;;;2.10;;
74926;SDS011;63488;48.092;-1.640;2023-03-26T02:37:35;9.27;;;2.00;;
74926;SDS011;63488;48.092;-1.640;2023-03-26T02:40:00;9.65;;;1.60;;
74926;SDS011;63488;48.092;-1.640;2023-03-26T02:42:26;8.55;;;1.50;;
74926;SDS011;63488;48.092;-1.640;2023-03-26T02:44:51;7.25;;;1.60;;
74926;SDS011;63488;48.092;-1.640;2023-03-26T02:47:17;8.30;;;1.90;;
74926;SDS011;63488;48.092;-1.640;2023-03-26T02:49:42;8.73;;;1.90;;
74926;SDS011;63488;48.092;-1.640;2023-03-26T02:52:08;9.63;;;1.80;;
74926;SDS011;63488;48.092;-1.640;2023-03-26T02:54:33;8.20;;;1.60;;
74926;SDS011;63488;48.092;-1.640;2023-03-26T02:56:59;11.90;;;1.95;;
74926;SDS011;63488;48.092;-1.640;2023-03-26T02:59:24;8.70;;;1.70;;
74926;SDS011;63488;48.092;-1.640;2023-03-26T03:01:50;9.75;;;1.88;;
74926;SDS011;63488;48.092;-1.640;2023-03-26T03:04:15;9.80;;;2.03;;
74926;SDS011;63488;48.092;-1.640;2023-03-26T03:06:42;10.32;;;1.73;;
74926;SDS011;63488;48.092;-1.640;2023-03-26T03:09:08;9.55;;;1.60;;
74926;SDS011;63488;48.092;-1.640;2023-03-26T03:11:34;9.35;;;1.70;;
74926;SDS011;63488;48.092;-1.640;2023-03-26T03:14:00;8.27;;;1.52;;
74926;SDS011;63488;48.092;-1.640;2023-03-26T03:16:25;8.80;;;1.63;;
74926;SDS011;63488;48.092;-1.640;2023-03-26T03:18:51;9.68;;;1.70;;
74926;SDS011;63488;48.092;-1.640;2023-03-26T03:21:23;5.97;;;1.40;;
74926;SDS011;63488;48.092;-1.640;2023-03-26T03:23:49;7.88;;;1.67;;
74926;SDS011;63488;48.092;-1.640;2023-03-26T03:26:16;9.05;;;1.98;;
74926;SDS011;63488;48.092;-1.640;2023-03-26T03:28:42;10.02;;;2.30;;
74926;SDS011;63488;48.092;-1.640;2023-03-26T03:31:09;8.63;;;1.88;;
74926;SDS011;63488;48.092;-1.640;2023-03-26T03:33:34;7.30;;;1.55;;
74926;SDS011;63488;48.092;-1.640;2023-03-26T03:35:59;6.22;;;1.40;;
74926;SDS011;63488;48.092;-1.640;2023-03-26T03:38:25;5.63;;;1.50;;
74926;SDS011;63488;48.092;-1.640;2023-03-26T03:40:50;8.23;;;1.92;;
74926;SDS011;63488;48.092;-1.640;2023-03-26T03:43:18;9.48;;;1.60;;
74926;SDS011;63488;48.092;-1.640;2023-03-26T03:45:43;7.35;;;1.42;;
74926;SDS011;63488;48.092;-1.640;2023-03-26T03:48:09;7.47;;;1.90;;
74926;SDS011;63488;48.092;-1.640;2023-03-26T03:50:34;8.57;;;1.70;;
74926;SDS011;63488;48.092;-1.640;2023-03-26T03:52:59;8.15;;;1.52;;
74926;SDS011;63488;48.092;-1.640;2023-03-26T03:55:25;8.80;;;1.90;;
74926;SDS011;63488;48.092;-1.640;2023-03-26T03:57:52;7.85;;;1.42;;
74926;SDS011;63488;48.092;-1.640;2023-03-26T04:00:17;11.38;;;1.80;;
74926;SDS011;63488;48.092;-1.640;2023-03-26T04:02:42;8.57;;;2.00;;
74926;SDS011;63488;48.092;-1.640;2023-03-26T04:05:10;10.63;;;2.22;;
74926;SDS011;63488;48.092;-1.640;2023-03-26T04:07:36;6.72;;;1.55;;
74926;SDS011;63488;48.092;-1.640;2023-03-26T04:10:01;9.13;;;1.83;;
74926;SDS011;63488;48.092;-1.640;2023-03-26T04:12:27;8.13;;;1.60;;
74926;SDS011;63488;48.092;-1.640;2023-03-26T04:14:53;7.93;;;1.55;;
74926;SDS011;63488;48.092;-1.640;2023-03-26T04:17:18;7.30;;;1.33;;
74926;SDS011;63488;48.092;-1.640;2023-03-26T04:19:45;9.10;;;1.60;;
74926;SDS011;63488;48.092;-1.640;2023-03-26T04:22:11;6.43;;;1.20;;
74926;SDS011;63488;48.092;-1.640;2023-03-26T04:24:36;6.57;;;1.23;;
74926;SDS011;63488;48.092;-1.640;2023-03-26T04:27:04;4.65;;;1.05;;
74926;SDS011;63488;48.092;-1.640;2023-03-26T04:29:30;6.43;;;0.85;;
74926;SDS011;63488;48.092;-1.640;2023-03-26T04:31:58;2.80;;;1.05;;
74926;SDS011;63488;48.092;-1.640;2023-03-26T04:34:30;5.40;;;0.82;;
74926;SDS011;63488;48.092;-1.640;2023-03-26T04:36:56;4.90;;;0.90;;
74926;SDS011;63488;48.092;-1.640;2023-03-26T04:39:22;3.28;;;0.77;;
74926;SDS011;63488;48.092;-1.640;2023-03-26T04:41:55;5.22;;;0.80;;
74926;SDS011;63488;48.092;-1.640;2023-03-26T04:44:22;4.20;;;0.70;;
74926;SDS011;63488;48.092;-1.640;2023-03-26T04:46:47;4.28;;;0.75;;
74926;SDS011;63488;48.092;-1.640;2023-03-26T04:49:13;3.20;;;0.60;;
74926;SDS011;63488;48.092;-1.640;2023-03-26T04:51:38;3.15;;;0.60;;
74926;SDS011;63488;48.092;-1.640;2023-03-26T04:54:06;4.00;;;0.80;;
74926;SDS011;63488;48.092;-1.640;2023-03-26T04:59:00;3.40;;;0.73;;
74926;SDS011;63488;48.092;-1.640;2023-03-26T05:01:26;4.07;;;0.80;;
74926;SDS011;63488;48.092;-1.640;2023-03-26T05:03:52;3.92;;;1.00;;
74926;SDS011;63488;48.092;-1.640;2023-03-26T05:06:18;4.40;;;1.08;;
74926;SDS011;63488;48.092;-1.640;2023-03-26T05:08:43;3.38;;;0.98;;
74926;SDS011;63488;48.092;-1.640;2023-03-26T05:11:09;3.33;;;0.57;;
74926;SDS011;63488;48.092;-1.640;2023-03-26T05:13:35;1.52;;;0.65;;
74926;SDS011;63488;48.092;-1.640;2023-03-26T05:16:01;4.95;;;0.98;;
74926;SDS011;63488;48.092;-1.640;2023-03-26T05:18:26;5.50;;;1.17;;
74926;SDS011;63488;48.092;-1.640;2023-03-26T05:20:51;3.45;;;0.82;;
74926;SDS011;63488;48.092;-1.640;2023-03-26T05:23:17;4.35;;;0.70;;
74926;SDS011;63488;48.092;-1.640;2023-03-26T05:25:42;3.53;;;0.73;;
74926;SDS011;63488;48.092;-1.640;2023-03-26T05:28:08;2.70;;;0.73;;
74926;SDS011;63488;48.092;-1.640;2023-03-26T05:30:33;3.10;;;1.10;;
74926;SDS011;63488;48.092;-1.640;2023-03-26T05:32:58;3.17;;;0.77;;
74926;SDS011;63488;48.092;-1.640;2023-03-26T05:35:24;3.25;;;0.80;;
74926;SDS011;63488;48.092;-1.640;2023-03-26T05:37:50;5.35;;;0.90;;
74926;SDS011;63488;48.092;-1.640;2023-03-26T05:40:15;3.25;;;0.68;;
74926;SDS011;63488;48.092;-1.640;2023-03-26T05:42:42;2.30;;;0.70;;
74926;SDS011;63488;48.092;-1.640;2023-03-26T05:45:08;4.55;;;0.85;;
74926;SDS011;63488;48.092;-1.640;2023-03-26T05:47:34;2.28;;;0.60;;
74926;SDS011;63488;48.092;-1.640;2023-03-26T05:50:00;3.85;;;0.73;;
74926;SDS011;63488;48.092;-1.640;2023-03-26T05:52:25;5.03;;;1.40;;
74926;SDS011;63488;48.092;-1.640;2023-03-26T05:54:51;2.95;;;0.90;;
74926;SDS011;63488;48.092;-1.640;2023-03-26T05:57:16;2.85;;;0.85;;
74926;SDS011;63488;48.092;-1.640;2023-03-26T05:59:42;2.50;;;0.75;;
74926;SDS011;63488;48.092;-1.640;2023-03-26T06:02:08;3.63;;;0.60;;
74926;SDS011;63488;48.092;-1.640;2023-03-26T06:04:34;3.55;;;0.70;;
74926;SDS011;63488;48.092;-1.640;2023-03-26T06:06:59;4.90;;;0.90;;
74926;SDS011;63488;48.092;-1.640;2023-03-26T06:09:26;2.38;;;0.70;;
74926;SDS011;63488;48.092;-1.640;2023-03-26T06:11:51;3.60;;;1.00;;
74926;SDS011;63488;48.092;-1.640;2023-03-26T06:14:17;2.97;;;0.77;;
74926;SDS011;63488;48.092;-1.640;2023-03-26T06:16:42;3.10;;;1.00;;
74926;SDS011;63488;48.092;-1.640;2023-03-26T06:19:07;4.00;;;0.85;;
74926;SDS011;63488;48.092;-1.640;2023-03-26T06:21:33;5.75;;;0.77;;
74926;SDS011;63488;48.092;-1.640;2023-03-26T06:23:58;2.50;;;0.80;;
74926;SDS011;63488;48.092;-1.640;2023-03-26T06:26:23;3.13;;;0.82;;
74926;SDS011;63488;48.092;-1.640;2023-03-26T06:28:49;3.13;;;0.60;;
74926;SDS011;63488;48.092;-1.640;2023-03-26T06:31:15;3.35;;;0.77;;
74926;SDS011;63488;48.092;-1.640;2023-03-26T06:33:41;2.13;;;0.75;;
74926;SDS011;63488;48.092;-1.640;2023-03-26T06:36:07;3.53;;;0.75;;
74926;SDS011;63488;48.092;-1.640;2023-03-26T06:38:32;2.72;;;0.70;;
74926;SDS011;63488;48.092;-1.640;2023-03-26T06:41:01;3.53;;;0.85;;
74926;SDS011;63488;48.092;-1.640;2023-03-26T06:43:27;3.17;;;0.77;;
74926;SDS011;63488;48.092;-1.640;2023-03-26T06:45:52;1.60;;;0.50;;
74926;SDS011;63488;48.092;-1.640;2023-03-26T06:48:17;5.35;;;1.17;;
74926;SDS011;63488;48.092;-1.640;2023-03-26T06:50:43;3.42;;;0.75;;
74926;SDS011;63488;48.092;-1.640;2023-03-26T06:53:09;3.67;;;1.15;;
74926;SDS011;63488;48.092;-1.640;2023-03-26T06:55:35;4.95;;;0.90;;
74926;SDS011;63488;48.092;-1.640;2023-03-26T06:58:00;5.72;;;1.10;;
74926;SDS011;63488;48.092;-1.640;2023-03-26T07:00:26;3.88;;;0.80;;
74926;SDS011;63488;48.092;-1.640;2023-03-26T07:02:51;5.57;;;1.05;;
74926;SDS011;63488;48.092;-1.640;2023-03-26T07:05:16;5.60;;;1.10;;
74926;SDS011;63488;48.092;-1.640;2023-03-26T07:07:42;4.47;;;0.80;;
74926;SDS011;63488;48.092;-1.640;2023-03-26T07:10:07;6.55;;;0.90;;
74926;SDS011;63488;48.092;-1.640;2023-03-26T07:12:33;4.10;;;1.00;;
74926;SDS011;63488;48.092;-1.640;2023-03-26T07:14:59;7.68;;;1.25;;
74926;SDS011;63488;48.092;-1.640;2023-03-26T07:17:25;5.35;;;1.10;;
74926;SDS011;63488;48.092;-1.640;2023-03-26T07:19:50;4.80;;;0.95;;
74926;SDS011;63488;48.092;-1.640;2023-03-26T07:22:21;6.20;;;1.38;;
74926;SDS011;63488;48.092;-1.640;2023-03-26T07:24:47;5.82;;;1.10;;
74926;SDS011;63488;48.092;-1.640;2023-03-26T07:29:45;6.80;;;1.35;;
74926;SDS011;63488;48.092;-1.640;2023-03-26T07:34:45;5.25;;;1.15;;
74926;SDS011;63488;48.092;-1.640;2023-03-26T07:37:16;5.53;;;1.00;;
74926;SDS011;63488;48.092;-1.640;2023-03-26T07:47:37;7.15;;;1.30;;
74926;SDS011;63488;48.092;-1.640;2023-03-26T07:50:05;7.03;;;1.25;;
74926;SDS011;63488;48.092;-1.640;2023-03-26T07:52:31;7.28;;;1.58;;
74926;SDS011;63488;48.092;-1.640;2023-03-26T07:54:57;5.22;;;1.15;;
74926;SDS011;63488;48.092;-1.640;2023-03-26T08:00:16;9.82;;;1.80;;
74926;SDS011;63488;48.092;-1.640;2023-03-26T08:05:14;8.30;;;1.35;;
74926;SDS011;63488;48.092;-1.640;2023-03-26T08:07:51;8.25;;;1.63;;
74926;SDS011;63488;48.092;-1.640;2023-03-26T08:18:28;13.20;;;2.17;;
74926;SDS011;63488;48.092;-1.640;2023-03-26T08:20:59;12.02;;;1.83;;
74926;SDS011;63488;48.092;-1.640;2023-03-26T08:23:30;13.07;;;2.40;;
74926;SDS011;63488;48.092;-1.640;2023-03-26T08:26:12;9.60;;;1.80;;
74926;SDS011;63488;48.092;-1.640;2023-03-26T08:31:17;5.13;;;1.15;;
74926;SDS011;63488;48.092;-1.640;2023-03-26T08:33:43;5.22;;;1.17;;
74926;SDS011;63488;48.092;-1.640;2023-03-26T08:36:09;4.25;;;0.93;;
74926;SDS011;63488;48.092;-1.640;2023-03-26T08:38:34;3.58;;;0.90;;
74926;SDS011;63488;48.092;-1.640;2023-03-26T08:43:46;3.17;;;0.73;;
74926;SDS011;63488;48.092;-1.640;2023-03-26T09:04:45;2.15;;;0.60;;
74926;SDS011;63488;48.092;-1.640;2023-03-26T09:07:29;1.95;;;0.60;;
74926;SDS011;63488;48.092;-1.640;2023-03-26T09:20:46;2.45;;;0.80;;
74926;SDS011;63488;48.092;-1.640;2023-03-26T09:31:26;1.25;;;0.68;;
74926;SDS011;63488;48.092;-1.640;2023-03-26T09:41:35;2.55;;;0.73;;
74926;SDS011;63488;48.092;-1.640;2023-03-26T09:52:11;0.93;;;0.40;;
74926;SDS011;63488;48.092;-1.640;2023-03-26T09:57:14;2.17;;;0.70;;
74926;SDS011;63488;48.092;-1.640;2023-03-26T10:05:12;3.00;;;0.70;;
74926;SDS011;63488;48.092;-1.640;2023-03-26T10:12:42;0.85;;;0.40;;
74926;SDS011;63488;48.092;-1.640;2023-03-26T10:15:10;1.90;;;0.50;;
74926;SDS011;63488;48.092;-1.640;2023-03-26T10:20:24;1.13;;;0.40;;
74926;SDS011;63488;48.092;-1.640;2023-03-26T10:25:32;0.98;;;0.30;;
74926;SDS011;63488;48.092;-1.640;2023-03-26T10:32:58;1.48;;;0.40;;
74926;SDS011;63488;48.092;-1.640;2023-03-26T10:35:35;1.23;;;0.40;;
74926;SDS011;63488;48.092;-1.640;2023-03-26T10:38:29;0.20;;;0.20;;
74926;SDS011;63488;48.092;-1.640;2023-03-26T10:58:49;0.90;;;0.47;;
74926;SDS011;63488;48.092;-1.640;2023-03-26T11:04:37;1.95;;;0.47;;
74926;SDS011;63488;48.092;-1.640;2023-03-26T11:22:20;2.95;;;0.90;;
74926;SDS011;63488;48.092;-1.640;2023-03-26T11:29:56;2.90;;;0.70;;
74926;SDS011;63488;48.092;-1.640;2023-03-26T11:32:34;4.70;;;0.80;;
74926;SDS011;63488;48.092;-1.640;2023-03-26T11:35:04;3.20;;;0.68;;
74926;SDS011;63488;48.092;-1.640;2023-03-26T11:37:33;3.33;;;0.70;;
74926;SDS011;63488;48.092;-1.640;2023-03-26T11:40:02;4.70;;;0.70;;
74926;SDS011;63488;48.092;-1.640;2023-03-26T11:42:30;2.73;;;0.57;;
74926;SDS011;63488;48.092;-1.640;2023-03-26T11:44:57;3.50;;;0.80;;
74926;SDS011;63488;48.092;-1.640;2023-03-26T11:47:27;4.90;;;0.90;;
74926;SDS011;63488;48.092;-1.640;2023-03-26T11:49:54;1.90;;;0.75;;
74926;SDS011;63488;48.092;-1.640;2023-03-26T11:52:23;2.60;;;0.70;;
74926;SDS011;63488;48.092;-1.640;2023-03-26T11:54:50;1.25;;;0.57;;
74926;SDS011;63488;48.092;-1.640;2023-03-26T11:57:17;2.33;;;0.57;;
74926;SDS011;63488;48.092;-1.640;2023-03-26T11:59:53;2.53;;;1.27;;
74926;SDS011;63488;48.092;-1.640;2023-03-26T12:02:28;5.20;;;1.42;;
74926;SDS011;63488;48.092;-1.640;2023-03-26T12:07:40;4.95;;;1.92;;
74926;SDS011;63488;48.092;-1.640;2023-03-26T12:10:09;2.47;;;0.82;;
74926;SDS011;63488;48.092;-1.640;2023-03-26T12:12:44;1.75;;;0.70;;
74926;SDS011;63488;48.092;-1.640;2023-03-26T12:15:14;5.43;;;0.80;;
74926;SDS011;63488;48.092;-1.640;2023-03-26T12:17:40;3.50;;;0.60;;
74926;SDS011;63488;48.092;-1.640;2023-03-26T12:22:50;2.28;;;0.60;;
74926;SDS011;63488;48.092;-1.640;2023-03-26T12:25:19;3.88;;;0.90;;
74926;SDS011;63488;48.092;-1.640;2023-03-26T12:30:18;3.67;;;0.97;;
74926;SDS011;63488;48.092;-1.640;2023-03-26T12:32:47;2.65;;;0.70;;
74926;SDS011;63488;48.092;-1.640;2023-03-26T12:35:14;4.60;;;0.73;;
74926;SDS011;63488;48.092;-1.640;2023-03-26T12:37:42;2.25;;;0.75;;
74926;SDS011;63488;48.092;-1.640;2023-03-26T12:42:59;3.78;;;0.80;;
74926;SDS011;63488;48.092;-1.640;2023-03-26T12:45:29;3.65;;;0.90;;
74926;SDS011;63488;48.092;-1.640;2023-03-26T12:47:56;3.38;;;0.80;;
74926;SDS011;63488;48.092;-1.640;2023-03-26T12:50:22;4.22;;;0.90;;
74926;SDS011;63488;48.092;-1.640;2023-03-26T12:53:01;4.15;;;1.00;;
74926;SDS011;63488;48.092;-1.640;2023-03-26T12:55:35;3.33;;;1.02;;
74926;SDS011;63488;48.092;-1.640;2023-03-26T13:03:26;4.93;;;0.90;;
74926;SDS011;63488;48.092;-1.640;2023-03-26T13:08:29;2.20;;;1.00;;
74926;SDS011;63488;48.092;-1.640;2023-03-26T13:13:57;6.05;;;0.90;;
74926;SDS011;63488;48.092;-1.640;2023-03-26T13:39:23;4.18;;;1.10;;
74926;SDS011;63488;48.092;-1.640;2023-03-26T13:47:06;1.98;;;0.60;;
74926;SDS011;63488;48.092;-1.640;2023-03-26T13:49:36;1.77;;;0.60;;
74926;SDS011;63488;48.092;-1.640;2023-03-26T13:54:31;1.70;;;0.50;;
74926;SDS011;63488;48.092;-1.640;2023-03-26T14:05:00;3.25;;;0.60;;
74926;SDS011;63488;48.092;-1.640;2023-03-26T14:07:33;1.00;;;0.47;;
74926;SDS011;63488;48.092;-1.640;2023-03-26T14:10:11;2.67;;;0.65;;
74926;SDS011;63488;48.092;-1.640;2023-03-26T14:12:40;2.80;;;0.63;;
74926;SDS011;63488;48.092;-1.640;2023-03-26T14:15:14;2.75;;;0.70;;
74926;SDS011;63488;48.092;-1.640;2023-03-26T14:35:41;6.25;;;1.20;;
74926;SDS011;63488;48.092;-1.640;2023-03-26T14:50:50;7.60;;;1.70;;
74926;SDS011;63488;48.092;-1.640;2023-03-26T14:53:28;6.90;;;1.30;;
74926;SDS011;63488;48.092;-1.640;2023-03-26T15:01:25;4.43;;;1.13;;
74926;SDS011;63488;48.092;-1.640;2023-03-26T15:11:36;5.13;;;1.30;;
74926;SDS011;63488;48.092;-1.640;2023-03-26T15:19:15;5.80;;;1.05;;
74926;SDS011;63488;48.092;-1.640;2023-03-26T15:24:20;3.70;;;0.95;;
74926;SDS011;63488;48.092;-1.640;2023-03-26T15:37:19;6.30;;;1.20;;
74926;SDS011;63488;48.092;-1.640;2023-03-26T15:45:31;6.85;;;1.25;;
74926;SDS011;63488;48.092;-1.640;2023-03-26T15:48:13;8.38;;;1.13;;
74926;SDS011;63488;48.092;-1.640;2023-03-26T16:03:38;5.13;;;1.23;;
74926;SDS011;63488;48.092;-1.640;2023-03-26T16:08:42;5.43;;;1.33;;
74926;SDS011;63488;48.092;-1.640;2023-03-26T16:11:17;10.77;;;1.42;;
74926;SDS011;63488;48.092;-1.640;2023-03-26T16:14:21;8.95;;;1.35;;
74926;SDS011;63488;48.092;-1.640;2023-03-26T16:24:22;6.18;;;1.20;;
74926;SDS011;63488;48.092;-1.640;2023-03-26T16:42:46;5.50;;;1.15;;
74926;SDS011;63488;48.092;-1.640;2023-03-26T16:45:36;4.53;;;1.00;;
74926;SDS011;63488;48.092;-1.640;2023-03-26T16:48:05;6.65;;;0.98;;
74926;SDS011;63488;48.092;-1.640;2023-03-26T16:53:14;7.70;;;1.65;;
74926;SDS011;63488;48.092;-1.640;2023-03-26T17:08:16;8.95;;;1.30;;
74926;SDS011;63488;48.092;-1.640;2023-03-26T17:10:54;5.65;;;1.27;;
74926;SDS011;63488;48.092;-1.640;2023-03-26T17:13:21;5.82;;;1.35;;
74926;SDS011;63488;48.092;-1.640;2023-03-26T17:15:54;7.00;;;1.42;;
74926;SDS011;63488;48.092;-1.640;2023-03-26T17:18:32;7.60;;;1.58;;
74926;SDS011;63488;48.092;-1.640;2023-03-26T17:23:29;11.32;;;1.85;;
74926;SDS011;63488;48.092;-1.640;2023-03-26T17:26:09;9.73;;;2.03;;
74926;SDS011;63488;48.092;-1.640;2023-03-26T17:28:52;7.60;;;1.30;;
74926;SDS011;63488;48.092;-1.640;2023-03-26T17:31:26;8.98;;;1.73;;
74926;SDS011;63488;48.092;-1.640;2023-03-26T17:34:30;5.32;;;1.25;;
74926;SDS011;63488;48.092;-1.640;2023-03-26T17:36:42;6.80;;;1.38;;
74926;SDS011;63488;48.092;-1.640;2023-03-26T17:42:09;7.55;;;1.40;;
74926;SDS011;63488;48.092;-1.640;2023-03-26T17:44:40;6.45;;;1.30;;
74926;SDS011;63488;48.092;-1.640;2023-03-26T17:47:12;8.45;;;1.60;;
74926;SDS011;63488;48.092;-1.640;2023-03-26T17:49:40;9.63;;;1.80;;
74926;SDS011;63488;48.092;-1.640;2023-03-26T17:54:43;10.15;;;1.70;;
74926;SDS011;63488;48.092;-1.640;2023-03-26T17:57:26;8.70;;;1.80;;
74926;SDS011;63488;48.092;-1.640;2023-03-26T17:59:57;8.43;;;1.70;;
74926;SDS011;63488;48.092;-1.640;2023-03-26T18:02:33;9.43;;;1.50;;
74926;SDS011;63488;48.092;-1.640;2023-03-26T18:05:01;8.52;;;1.55;;
74926;SDS011;63488;48.092;-1.640;2023-03-26T18:10:11;10.50;;;2.03;;
74926;SDS011;63488;48.092;-1.640;2023-03-26T18:17:46;10.13;;;2.03;;
74926;SDS011;63488;48.092;-1.640;2023-03-26T18:20:22;9.90;;;1.80;;
74926;SDS011;63488;48.092;-1.640;2023-03-26T18:22:48;8.38;;;1.52;;
74926;SDS011;63488;48.092;-1.640;2023-03-26T18:25:24;9.90;;;1.83;;
74926;SDS011;63488;48.092;-1.640;2023-03-26T18:27:51;10.52;;;2.35;;
74926;SDS011;63488;48.092;-1.640;2023-03-26T18:30:23;8.90;;;1.83;;
74926;SDS011;63488;48.092;-1.640;2023-03-26T18:33:03;12.57;;;1.83;;
74926;SDS011;63488;48.092;-1.640;2023-03-26T18:35:39;10.55;;;2.38;;
74926;SDS011;63488;48.092;-1.640;2023-03-26T18:38:05;11.65;;;1.95;;
74926;SDS011;63488;48.092;-1.640;2023-03-26T18:40:38;13.48;;;2.42;;
74926;SDS011;63488;48.092;-1.640;2023-03-26T18:43:04;10.95;;;1.88;;
74926;SDS011;63488;48.092;-1.640;2023-03-26T18:45:31;11.63;;;2.25;;
74926;SDS011;63488;48.092;-1.640;2023-03-26T18:48:04;12.23;;;2.05;;
74926;SDS011;63488;48.092;-1.640;2023-03-26T18:50:34;10.27;;;1.77;;
74926;SDS011;63488;48.092;-1.640;2023-03-26T18:53:01;13.52;;;2.85;;
74926;SDS011;63488;48.092;-1.640;2023-03-26T18:55:27;11.27;;;2.75;;
74926;SDS011;63488;48.092;-1.640;2023-03-26T18:57:53;11.30;;;2.65;;
74926;SDS011;63488;48.092;-1.640;2023-03-26T19:00:25;10.55;;;2.15;;
74926;SDS011;63488;48.092;-1.640;2023-03-26T19:03:05;11.40;;;2.20;;
74926;SDS011;63488;48.092;-1.640;2023-03-26T19:05:31;11.30;;;2.60;;
74926;SDS011;63488;48.092;-1.640;2023-03-26T19:07:58;13.23;;;2.90;;
74926;SDS011;63488;48.092;-1.640;2023-03-26T19:10:27;11.00;;;2.67;;
74926;SDS011;63488;48.092;-1.640;2023-03-26T19:12:53;12.95;;;3.22;;
74926;SDS011;63488;48.092;-1.640;2023-03-26T19:15:20;13.13;;;2.80;;
74926;SDS011;63488;48.092;-1.640;2023-03-26T19:17:46;13.45;;;3.30;;
74926;SDS011;63488;48.092;-1.640;2023-03-26T19:20:16;10.55;;;2.65;;
74926;SDS011;63488;48.092;-1.640;2023-03-26T19:22:43;11.07;;;2.78;;
74926;SDS011;63488;48.092;-1.640;2023-03-26T19:25:14;12.52;;;2.47;;
74926;SDS011;63488;48.092;-1.640;2023-03-26T19:27:41;9.95;;;2.90;;
74926;SDS011;63488;48.092;-1.640;2023-03-26T19:30:06;12.80;;;2.55;;
74926;SDS011;63488;48.092;-1.640;2023-03-26T19:32:32;8.55;;;2.08;;
74926;SDS011;63488;48.092;-1.640;2023-03-26T19:34:59;12.18;;;2.25;;
74926;SDS011;63488;48.092;-1.640;2023-03-26T19:37:26;8.38;;;2.00;;
74926;SDS011;63488;48.092;-1.640;2023-03-26T19:39:59;11.05;;;2.08;;
74926;SDS011;63488;48.092;-1.640;2023-03-26T19:42:29;10.65;;;2.40;;
74926;SDS011;63488;48.092;-1.640;2023-03-26T19:45:00;12.85;;;2.83;;
74926;SDS011;63488;48.092;-1.640;2023-03-26T19:47:44;9.90;;;2.28;;
74926;SDS011;63488;48.092;-1.640;2023-03-26T19:52:39;8.77;;;2.03;;
74926;SDS011;63488;48.092;-1.640;2023-03-26T19:57:36;10.48;;;2.60;;
74926;SDS011;63488;48.092;-1.640;2023-03-26T20:00:05;9.60;;;2.30;;
74926;SDS011;63488;48.092;-1.640;2023-03-26T20:02:37;8.15;;;2.17;;
74926;SDS011;63488;48.092;-1.640;2023-03-26T20:05:02;12.63;;;2.78;;
74926;SDS011;63488;48.092;-1.640;2023-03-26T20:07:28;10.80;;;2.47;;
74926;SDS011;63488;48.092;-1.640;2023-03-26T20:09:53;10.98;;;2.60;;
74926;SDS011;63488;48.092;-1.640;2023-03-26T20:12:19;9.07;;;2.35;;
74926;SDS011;63488;48.092;-1.640;2023-03-26T20:14:45;9.88;;;2.65;;
74926;SDS011;63488;48.092;-1.640;2023-03-26T20:17:13;12.63;;;2.63;;
74926;SDS011;63488;48.092;-1.640;2023-03-26T20:19:39;10.43;;;2.40;;
74926;SDS011;63488;48.092;-1.640;2023-03-26T20:22:07;8.82;;;2.33;;
74926;SDS011;63488;48.092;-1.640;2023-03-26T20:24:35;8.27;;;2.60;;
74926;SDS011;63488;48.092;-1.640;2023-03-26T20:27:00;10.55;;;2.85;;
74926;SDS011;63488;48.092;-1.640;2023-03-26T20:29:25;11.82;;;3.28;;
74926;SDS011;63488;48.092;-1.640;2023-03-26T20:31:52;8.90;;;3.38;;
74926;SDS011;63488;48.092;-1.640;2023-03-26T20:34:19;8.60;;;2.38;;
74926;SDS011;63488;48.092;-1.640;2023-03-26T20:36:45;11.27;;;2.47;;
74926;SDS011;63488;48.092;-1.640;2023-03-26T20:39:11;9.45;;;2.30;;
74926;SDS011;63488;48.092;-1.640;2023-03-26T20:41:39;8.13;;;2.30;;
74926;SDS011;63488;48.092;-1.640;2023-03-26T20:44:11;8.32;;;2.50;;
74926;SDS011;63488;48.092;-1.640;2023-03-26T20:46:39;8.48;;;2.30;;
74926;SDS011;63488;48.092;-1.640;2023-03-26T20:49:04;8.73;;;2.33;;
74926;SDS011;63488;48.092;-1.640;2023-03-26T20:51:30;11.98;;;3.40;;
74926;SDS011;63488;48.092;-1.640;2023-03-26T20:53:56;8.43;;;3.20;;
74926;SDS011;63488;48.092;-1.640;2023-03-26T20:56:21;8.98;;;2.72;;